Saint Anne, IL (60964)

6:50 AM CDT on September 03, 2015 (GMT -0500)
rural Saint Anne | | Change Station
CLOSE
Current Station
Personal Weather Station
Location: Saint Anne, IL
Elevation: 689 ft
Nearby Weather Stations

Elev 689 ft 41.06 °N, 87.75 °W | Updated 3 minutes ago

Clear
Clear
68.5 °F
Feels Like 68.5 °F
N
2.2
Wind Variable Wind from South

Today
High -- | Low -- °F
--% Chance of Precip.
Yesterday
High -- | Low -- °F
Precip. -- in
6:19 AM 7:20 PM
Waning Gibbous, 71% visible
Pressure 30.00 in
Visibility 5.0 miles
Clouds Clear
Dew Point 68 °F
Humidity 99%
Rainfall 0.00 in
Snow Depth Not available.
UV 0 out of 12
Pollen 6.70 out of 12
Air Quality Not available.
Flu Activity Not available.
METAR KIKK 031135Z AUTO 20003KT 5SM BR CLR 20/19 A3000 RMK AO2 T01960189
Pressure 30.00 in
Visibility 5.0 miles
Clouds Clear
Dew Point 68 °F
Humidity 99%
Rainfall 0.00 in
Snow Depth Not available.
UV 0 out of 12
Pollen 6.70 out of 12
Air Quality Not available.
Flu Activity Not available.
METAR KIKK 031135Z AUTO 20003KT 5SM BR CLR 20/19 A3000 RMK AO2 T01960189

10-Day Weather Forecast

×

Almanac

Astronomy

Sep. 03, 2015 Rise Set
Actual Time
Civil Twilight
Nautical Twilight
Astronomical Twilight
Moon
Length of Visible Light
Length of Day
Tomorrow will be .
, % of the Moon is Illuminated

Today's Extremes

State Highs State Lows

Community

WunderPhotos

Upload Photos

1,851,941 photos uploaded!

WunderBlogs® & News

Nearby

Air Quality

  Air Quality AQ Index Pollutant
Not available.

Snow Depth

Station Depth Elevation

Earthquake Activity

City Distance Mag. Time & Date
Minimum magnitude displayed is 2.5.

Coastal Water Temperatures

Place Temperature

Stations

Nearby Weather Stations

Station Location Temp. Windchill Dew Point Humidity Wind Precip. Elev Updated Type